Time;durP1;ratioP1;P1;durP2;ratioP2;P2;SDS_P1;SDS_P2;PMS_P1;PMS_P2;Temp;Humidity;BMP_temperature;BMP_pressure;BME280_temperature;BME280_humidity;BME280_pressure;Samples;Min_cycle;Max_cycle;Signal;HPM_P1;HPM_P2
2022/06/13 00:01:55;;;;;;;;;;;14.10;99.90;;;;;;5057140;28;19915;-78
2022/06/13 00:04:21;;;;;;;;;;;14.00;99.90;;;;;;5057409;28;19917;-78
2022/06/13 00:06:47;;;;;;;;;;;13.90;99.90;;;;;;5062472;28;19987;-78
2022/06/13 00:09:13;;;;;;;;;;;13.80;99.90;;;;;;5059124;28;19913;-78
2022/06/13 00:11:39;;;;;;;;;;;13.80;99.90;;;;;;5077560;28;20349;-79
2022/06/13 00:14:05;;;;;;;;;;;13.70;99.90;;;;;;5077991;28;19988;-79
2022/06/13 00:16:30;;;;;;;;;;;13.60;99.90;;;;;;5074102;28;19921;-78
2022/06/13 00:18:56;;;;;;;;;;;13.60;99.90;;;;;;5077098;28;20366;-79
2022/06/13 00:21:29;;;;;;;;;;;13.60;99.90;;;;;;5077988;28;20302;-78
2022/06/13 00:23:55;;;;;;;;;;;13.60;99.90;;;;;;5059776;28;20060;-78
2022/06/13 00:26:22;;;;;;;;;;;13.70;99.90;;;;;;5081125;28;19897;-78
2022/06/13 00:28:50;;;;;;;;;;;13.80;99.90;;;;;;5074502;28;19912;-78
2022/06/13 00:31:16;;;;;;;;;;;13.90;99.90;;;;;;5081973;28;19912;-79
2022/06/13 00:33:42;;;;;;;;;;;13.80;99.90;;;;;;5071876;28;19916;-78
2022/06/13 00:36:07;;;;;;;;;;;13.70;99.90;;;;;;5091860;28;19920;-79
2022/06/13 00:38:33;;;;;;;;;;;13.70;99.90;;;;;;5068410;28;19968;-78
2022/06/13 00:41:02;;;;;;;;;;;13.70;99.90;;;;;;5086151;28;19904;-78
2022/06/13 00:43:27;;;;;;;;;;;13.80;99.90;;;;;;5091233;28;19923;-78
2022/06/13 00:45:53;;;;;;;;;;;13.90;99.90;;;;;;5085381;28;19940;-79
2022/06/13 00:48:24;;;;;;;;;;;13.90;99.90;;;;;;5079495;28;19959;-78
2022/06/13 00:50:52;;;;;;;;;;;13.80;99.90;;;;;;5085423;28;19964;-78
2022/06/13 00:53:24;;;;;;;;;;;13.80;99.90;;;;;;5091699;28;19925;-79
2022/06/13 00:55:50;;;;;;;;;;;13.70;99.90;;;;;;5072133;28;19916;-78
2022/06/13 00:58:15;;;;;;;;;;;13.60;99.90;;;;;;5075029;28;19924;-78
2022/06/13 01:00:42;;;;;;;;;;;13.70;99.90;;;;;;5092883;28;19917;-78
2022/06/13 01:03:08;;;;;;;;;;;13.70;99.90;;;;;;5065487;28;19905;-79
2022/06/13 01:05:35;;;;;;;;;;;13.60;99.90;;;;;;5088600;28;19983;-78
2022/06/13 01:08:03;;;;;;;;;;;13.70;99.90;;;;;;5091960;28;19916;-78
2022/06/13 01:13:14;;;;;;;;;;;13.60;99.90;;;;;;5080015;28;19927;-78
2022/06/13 01:15:49;;;;;;;;;;;13.50;99.90;;;;;;5073179;28;19928;-78
2022/06/13 01:18:22;;;;;;;;;;;13.50;99.90;;;;;;5061499;28;19988;-77
2022/06/13 01:20:49;;;;;;;;;;;13.40;99.90;;;;;;5067484;28;19920;-78
2022/06/13 01:23:26;;;;;;;;;;;13.30;99.90;;;;;;5067536;28;19912;-77
2022/06/13 01:26:18;;;;;;;;;;;13.30;99.90;;;;;;5071587;28;19913;-79
2022/06/13 01:28:49;;;;;;;;;;;13.30;99.90;;;;;;5050094;28;19901;-77
2022/06/13 01:31:16;;;;;;;;;;;13.30;99.90;;;;;;5051173;28;20239;-76
2022/06/13 01:33:54;;;;;;;;;;;13.30;99.90;;;;;;5066716;28;19935;-79
2022/06/13 01:36:35;;;;;;;;;;;13.20;99.90;;;;;;5067584;28;19919;-79
2022/06/13 01:39:01;;;;;;;;;;;13.10;99.90;;;;;;5047744;28;19919;-78
2022/06/13 01:41:33;;;;;;;;;;;13.10;99.90;;;;;;5065803;28;19971;-78
2022/06/13 01:43:58;;;;;;;;;;;13.10;99.90;;;;;;5063310;28;20565;-78
2022/06/13 01:46:30;;;;;;;;;;;13.00;99.90;;;;;;5065361;28;19936;-79
2022/06/13 01:48:55;;;;;;;;;;;12.90;99.90;;;;;;5047147;28;19917;-78
2022/06/13 01:51:28;;;;;;;;;;;12.90;99.90;;;;;;5066984;28;19997;-78
2022/06/13 01:53:57;;;;;;;;;;;12.90;99.90;;;;;;5071177;28;19920;-78
2022/06/13 01:56:28;;;;;;;;;;;12.90;99.90;;;;;;5068816;28;19917;-78
2022/06/13 01:58:59;;;;;;;;;;;12.90;99.90;;;;;;5070669;28;19917;-78
2022/06/13 02:01:27;;;;;;;;;;;13.10;99.90;;;;;;5074721;28;19908;-78
2022/06/13 02:04:07;;;;;;;;;;;13.10;99.90;;;;;;5072540;28;19928;-78
2022/06/13 02:06:35;;;;;;;;;;;13.20;99.90;;;;;;5064368;28;19912;-77
2022/06/13 02:09:02;;;;;;;;;;;13.20;99.90;;;;;;5071377;28;19912;-77
2022/06/13 02:11:31;;;;;;;;;;;13.20;99.90;;;;;;5067908;28;19979;-77
2022/06/13 02:14:06;;;;;;;;;;;13.00;99.90;;;;;;5051225;28;19956;-77
2022/06/13 02:16:37;;;;;;;;;;;13.00;99.90;;;;;;5072467;28;20424;-78
2022/06/13 02:19:05;;;;;;;;;;;12.90;99.90;;;;;;5060294;28;20330;-78
2022/06/13 02:21:39;;;;;;;;;;;12.90;99.90;;;;;;5082568;28;19920;-77
2022/06/13 02:24:07;;;;;;;;;;;12.90;99.90;;;;;;5080699;28;20352;-77
2022/06/13 02:26:34;;;;;;;;;;;13.00;99.90;;;;;;5080817;28;19940;-76
2022/06/13 02:29:10;;;;;;;;;;;13.00;99.90;;;;;;5071695;28;19917;-77
2022/06/13 02:31:42;;;;;;;;;;;13.00;99.90;;;;;;5071738;28;19954;-78
2022/06/13 02:34:13;;;;;;;;;;;13.00;99.90;;;;;;5078615;28;19920;-78
2022/06/13 02:36:41;;;;;;;;;;;13.00;99.90;;;;;;5056445;28;19920;-78
2022/06/13 02:39:18;;;;;;;;;;;13.00;99.90;;;;;;5079888;28;19936;-78
2022/06/13 02:41:46;;;;;;;;;;;12.80;99.90;;;;;;5092186;28;19901;-78
2022/06/13 02:44:22;;;;;;;;;;;12.80;99.90;;;;;;5088895;28;19963;-78
2022/06/13 02:46:51;;;;;;;;;;;12.70;99.90;;;;;;5090455;28;19923;-79
2022/06/13 02:49:35;;;;;;;;;;;12.70;99.90;;;;;;5093793;28;19905;-78
2022/06/13 02:52:01;;;;;;;;;;;12.80;99.90;;;;;;5073849;28;19904;-78
2022/06/13 02:54:31;;;;;;;;;;;12.80;99.90;;;;;;5093503;28;19937;-77
2022/06/13 02:59:51;;;;;;;;;;;12.80;99.90;;;;;;5088697;28;19923;-80
2022/06/13 03:02:20;;;;;;;;;;;12.70;99.90;;;;;;5072575;28;19928;-79
2022/06/13 03:04:52;;;;;;;;;;;12.70;99.90;;;;;;5068924;28;19944;-78
2022/06/13 03:07:35;;;;;;;;;;;12.80;99.90;;;;;;5081907;28;19901;-78
2022/06/13 03:10:12;;;;;;;;;;;12.80;99.90;;;;;;5083456;28;19924;-78
2022/06/13 03:12:56;;;;;;;;;;;12.80;99.90;;;;;;5067743;28;19976;-77
2022/06/13 03:15:26;;;;;;;;;;;12.80;99.90;;;;;;5084846;28;19928;-77
2022/06/13 03:18:11;;;;;;;;;;;12.70;99.90;;;;;;5083995;28;19913;-78
2022/06/13 03:20:55;;;;;;;;;;;12.60;99.90;;;;;;5086045;28;19924;-78
2022/06/13 03:23:23;;;;;;;;;;;12.50;99.90;;;;;;5072889;28;19930;-78
2022/06/13 03:26:00;;;;;;;;;;;12.50;99.90;;;;;;5075661;28;19947;-79
2022/06/13 03:28:32;;;;;;;;;;;12.60;99.90;;;;;;5070479;28;19963;-77
2022/06/13 03:31:02;;;;;;;;;;;12.50;99.90;;;;;;5077107;28;19912;-77
2022/06/13 03:33:42;;;;;;;;;;;12.50;99.90;;;;;;5060284;28;19920;-79
2022/06/13 03:36:08;;;;;;;;;;;12.50;99.90;;;;;;5056674;28;19970;-76
2022/06/13 03:38:39;;;;;;;;;;;12.60;99.90;;;;;;5077990;28;19913;-77
2022/06/13 03:41:06;;;;;;;;;;;12.60;99.90;;;;;;5074402;28;19913;-78
2022/06/13 03:43:46;;;;;;;;;;;12.60;99.90;;;;;;5076121;28;19994;-79
2022/06/13 03:46:14;;;;;;;;;;;12.70;99.90;;;;;;5075819;28;19912;-78
2022/06/13 03:48:49;;;;;;;;;;;12.60;99.90;;;;;;5070817;28;19913;-79
2022/06/13 03:51:23;;;;;;;;;;;12.60;99.90;;;;;;5058056;28;20697;-78
2022/06/13 03:54:01;;;;;;;;;;;12.40;99.90;;;;;;5078908;28;19947;-78
2022/06/13 03:56:33;;;;;;;;;;;12.30;99.90;;;;;;5081983;28;19920;-78
2022/06/13 03:59:03;;;;;;;;;;;12.30;99.90;;;;;;5077319;28;19923;-78
2022/06/13 04:01:31;;;;;;;;;;;12.30;99.90;;;;;;5080242;28;19913;-77
2022/06/13 04:03:57;;;;;;;;;;;12.20;99.90;;;;;;5080458;28;19913;-78
2022/06/13 04:06:29;;;;;;;;;;;12.30;99.90;;;;;;5077466;28;19913;-78
2022/06/13 04:08:55;;;;;;;;;;;12.20;99.90;;;;;;5071587;28;19913;-78
2022/06/13 04:11:32;;;;;;;;;;;12.30;99.90;;;;;;5074125;28;19924;-78
2022/06/13 04:14:01;;;;;;;;;;;12.30;99.90;;;;;;5070517;28;19921;-79
2022/06/13 04:16:29;;;;;;;;;;;12.30;99.90;;;;;;5057229;28;19927;-77
2022/06/13 04:19:00;;;;;;;;;;;12.20;99.90;;;;;;5070503;28;20366;-78
2022/06/13 04:21:34;;;;;;;;;;;12.10;99.90;;;;;;5048785;28;19920;-78
2022/06/13 04:24:09;;;;;;;;;;;12.00;99.90;;;;;;5054250;28;19967;-79
2022/06/13 04:26:42;;;;;;;;;;;11.90;99.90;;;;;;5067809;28;19912;-77
2022/06/13 04:29:11;;;;;;;;;;;11.90;99.90;;;;;;5074882;28;19917;-77
2022/06/13 04:31:37;;;;;;;;;;;11.90;99.90;;;;;;5081773;28;20286;-77
2022/06/13 04:34:11;;;;;;;;;;;11.90;99.90;;;;;;5062863;28;19928;-78
2022/06/13 04:36:38;;;;;;;;;;;11.90;99.90;;;;;;5067022;28;20455;-78
2022/06/13 04:39:10;;;;;;;;;;;11.90;99.90;;;;;;5065781;28;19923;-80
2022/06/13 04:41:39;;;;;;;;;;;11.90;99.90;;;;;;5070153;28;19913;-77
2022/06/13 04:44:05;;;;;;;;;;;12.00;99.90;;;;;;5064431;28;19965;-78
2022/06/13 04:46:31;;;;;;;;;;;12.00;99.90;;;;;;5091677;28;19997;-80
2022/06/13 04:48:59;;;;;;;;;;;12.10;99.90;;;;;;5093647;28;19947;-78
2022/06/13 04:51:27;;;;;;;;;;;12.20;99.90;;;;;;5069844;28;19917;-77
2022/06/13 04:53:53;;;;;;;;;;;12.10;99.90;;;;;;5089551;28;19979;-77
2022/06/13 04:56:20;;;;;;;;;;;12.10;99.90;;;;;;5091249;28;19931;-79
2022/06/13 04:58:46;;;;;;;;;;;12.00;99.90;;;;;;5088981;28;19942;-80
2022/06/13 05:01:34;;;;;;;;;;;12.10;99.90;;;;;;5093375;28;19923;-78
2022/06/13 05:04:01;;;;;;;;;;;12.10;99.90;;;;;;5066135;28;19917;-78
2022/06/13 05:06:37;;;;;;;;;;;12.10;99.90;;;;;;5083925;28;19912;-78
2022/06/13 05:09:04;;;;;;;;;;;12.20;99.90;;;;;;5079349;28;19972;-78
2022/06/13 05:12:09;;;;;;;;;;;12.20;99.90;;;;;;5062066;28;19921;-79
2022/06/13 05:14:37;;;;;;;;;;;12.30;99.90;;;;;;4984022;28;20481;-77
2022/06/13 05:17:03;;;;;;;;;;;12.40;99.90;;;;;;5006324;28;19932;-77
2022/06/13 05:19:47;;;;;;;;;;;12.60;99.90;;;;;;5005731;28;19914;-78
2022/06/13 05:22:18;;;;;;;;;;;12.60;99.90;;;;;;5007111;28;19913;-77
2022/06/13 05:24:56;;;;;;;;;;;12.70;99.90;;;;;;4991865;28;19924;-76
2022/06/13 05:27:22;;;;;;;;;;;12.60;99.90;;;;;;5083080;28;19912;-78
2022/06/13 05:29:48;;;;;;;;;;;12.70;99.90;;;;;;5080472;28;20353;-77
2022/06/13 05:32:14;;;;;;;;;;;12.90;99.90;;;;;;5062484;28;19912;-78
2022/06/13 05:34:41;;;;;;;;;;;13.00;99.90;;;;;;5063389;28;20286;-77
2022/06/13 05:37:07;;;;;;;;;;;12.90;99.90;;;;;;5078018;28;19980;-79
2022/06/13 05:39:35;;;;;;;;;;;13.00;99.90;;;;;;5061325;28;19988;-77
2022/06/13 05:42:01;;;;;;;;;;;13.00;99.90;;;;;;5092366;28;19920;-77
2022/06/13 05:44:26;;;;;;;;;;;13.00;99.90;;;;;;5067295;28;20030;-78
2022/06/13 05:46:52;;;;;;;;;;;13.10;99.90;;;;;;5081331;28;19913;-77
2022/06/13 05:49:18;;;;;;;;;;;13.10;99.90;;;;;;5067583;28;19942;-79
2022/06/13 05:51:44;;;;;;;;;;;13.20;99.90;;;;;;5076537;28;19958;-79
2022/06/13 05:54:10;;;;;;;;;;;13.20;99.90;;;;;;5080971;28;19925;-79
2022/06/13 05:56:36;;;;;;;;;;;13.30;99.90;;;;;;5086283;28;19919;-78
2022/06/13 05:59:01;;;;;;;;;;;13.30;99.90;;;;;;5077655;28;19955;-78
2022/06/13 06:01:27;;;;;;;;;;;13.40;99.90;;;;;;5080965;28;19916;-77
2022/06/13 06:03:53;;;;;;;;;;;13.40;99.90;;;;;;5065149;28;19924;-78
2022/06/13 06:06:20;;;;;;;;;;;13.40;99.90;;;;;;5086208;28;19913;-78
2022/06/13 06:08:47;;;;;;;;;;;13.50;99.90;;;;;;5080923;28;19924;-79
2022/06/13 06:11:13;;;;;;;;;;;13.60;99.90;;;;;;5069536;28;20254;-79
2022/06/13 06:13:38;;;;;;;;;;;13.60;99.90;;;;;;5082241;28;20363;-78
2022/06/13 06:16:04;;;;;;;;;;;13.80;99.90;;;;;;5084441;28;20376;-80
2022/06/13 06:18:30;;;;;;;;;;;13.80;99.90;;;;;;5066088;28;19912;-78
2022/06/13 06:20:56;;;;;;;;;;;13.80;99.90;;;;;;5077299;28;19973;-77
2022/06/13 06:23:22;;;;;;;;;;;13.80;99.90;;;;;;5083723;28;19962;-79
2022/06/13 06:25:48;;;;;;;;;;;13.90;99.90;;;;;;5080977;28;19913;-78
2022/06/13 06:28:18;;;;;;;;;;;14.00;99.90;;;;;;5067034;28;20004;-78
2022/06/13 06:30:44;;;;;;;;;;;14.20;99.90;;;;;;5079356;28;19920;-78
2022/06/13 06:33:09;;;;;;;;;;;14.30;99.90;;;;;;5071807;28;19927;-79
2022/06/13 06:35:35;;;;;;;;;;;14.30;99.90;;;;;;5088854;28;19964;-79
2022/06/13 06:38:01;;;;;;;;;;;14.30;99.90;;;;;;5092928;28;19977;-77
2022/06/13 06:40:27;;;;;;;;;;;14.40;99.90;;;;;;5087729;28;19932;-77
2022/06/13 06:42:53;;;;;;;;;;;14.50;99.90;;;;;;5087186;28;19920;-77
2022/06/13 06:45:19;;;;;;;;;;;14.70;99.90;;;;;;5072856;28;19917;-78
2022/06/13 06:47:45;;;;;;;;;;;14.70;99.90;;;;;;5091961;28;19944;-80
2022/06/13 06:50:12;;;;;;;;;;;14.70;99.90;;;;;;5084968;28;19928;-78
2022/06/13 06:52:38;;;;;;;;;;;14.80;99.90;;;;;;5071847;28;19988;-78
2022/06/13 07:00:32;;;;;;;;;;;14.80;99.90;;;;;;5083231;28;19924;-77
2022/06/13 07:02:58;;;;;;;;;;;14.70;99.90;;;;;;5072264;28;19908;-77
2022/06/13 07:05:23;;;;;;;;;;;14.70;99.90;;;;;;5078901;28;19901;-77
2022/06/13 07:07:49;;;;;;;;;;;14.80;99.90;;;;;;5074176;28;19964;-78
2022/06/13 07:10:15;;;;;;;;;;;14.80;99.90;;;;;;5052225;28;19907;-77
2022/06/13 07:12:40;;;;;;;;;;;14.90;99.90;;;;;;5075761;28;19943;-77
2022/06/13 07:15:06;;;;;;;;;;;14.80;99.90;;;;;;5080287;28;19927;-78
2022/06/13 07:17:32;;;;;;;;;;;14.90;99.90;;;;;;5085518;28;19920;-76
2022/06/13 07:19:58;;;;;;;;;;;15.00;99.90;;;;;;5081559;28;19905;-77
2022/06/13 07:22:24;;;;;;;;;;;15.10;99.90;;;;;;5086872;28;19939;-77
2022/06/13 07:24:49;;;;;;;;;;;15.20;99.90;;;;;;5083299;28;19920;-77
2022/06/13 07:27:15;;;;;;;;;;;15.20;99.90;;;;;;5082700;28;19920;-78
2022/06/13 07:29:41;;;;;;;;;;;15.20;99.90;;;;;;5084529;28;19927;-78
2022/06/13 07:32:07;;;;;;;;;;;15.30;99.90;;;;;;5080751;28;19920;-79
2022/06/13 07:34:38;;;;;;;;;;;15.30;99.90;;;;;;5094110;28;19917;-78
2022/06/13 07:37:05;;;;;;;;;;;15.20;99.90;;;;;;5061876;28;20347;-78
2022/06/13 07:39:32;;;;;;;;;;;15.30;99.90;;;;;;5069485;28;19978;-78
2022/06/13 07:41:57;;;;;;;;;;;15.40;99.90;;;;;;5089386;28;19940;-78
2022/06/13 07:44:25;;;;;;;;;;;15.50;99.90;;;;;;5070085;28;19920;-78
2022/06/13 07:46:51;;;;;;;;;;;15.50;99.90;;;;;;5088197;28;19923;-78
2022/06/13 07:49:17;;;;;;;;;;;15.60;99.90;;;;;;5081214;28;19912;-79
2022/06/13 07:51:43;;;;;;;;;;;15.60;99.90;;;;;;5085768;28;19942;-78
2022/06/13 07:54:09;;;;;;;;;;;15.60;99.90;;;;;;5083326;28;19928;-78
2022/06/13 07:56:36;;;;;;;;;;;15.60;99.90;;;;;;5079163;28;19916;-79
2022/06/13 07:59:02;;;;;;;;;;;15.80;99.90;;;;;;5078081;28;19992;-79
2022/06/13 08:01:28;;;;;;;;;;;15.90;99.90;;;;;;5073463;28;19911;-77
2022/06/13 08:03:54;;;;;;;;;;;16.00;99.90;;;;;;5062427;28;19912;-78
2022/06/13 08:06:20;;;;;;;;;;;16.00;99.90;;;;;;5090392;28;19926;-78
2022/06/13 08:08:46;;;;;;;;;;;15.90;99.90;;;;;;5062020;28;19912;-77
2022/06/13 08:11:14;;;;;;;;;;;16.00;99.90;;;;;;5067627;28;19979;-78
2022/06/13 08:13:43;;;;;;;;;;;16.00;99.90;;;;;;5084404;28;19920;-76
2022/06/13 08:16:09;;;;;;;;;;;16.10;99.90;;;;;;5087891;28;19928;-77
2022/06/13 08:18:35;;;;;;;;;;;16.30;99.90;;;;;;5084255;28;20271;-77
2022/06/13 08:21:00;;;;;;;;;;;16.30;99.90;;;;;;5070637;28;19938;-78
2022/06/13 08:23:29;;;;;;;;;;;16.40;99.90;;;;;;5068385;28;19920;-78
2022/06/13 08:25:55;;;;;;;;;;;16.30;99.90;;;;;;5076941;28;19900;-78
2022/06/13 08:28:21;;;;;;;;;;;16.40;99.90;;;;;;5084271;28;19913;-79
2022/06/13 08:30:50;;;;;;;;;;;16.50;99.90;;;;;;5077720;28;19979;-81
2022/06/13 08:33:22;;;;;;;;;;;16.70;99.90;;;;;;5074814;28;19982;-80
2022/06/13 08:35:48;;;;;;;;;;;16.90;99.90;;;;;;5078419;28;19904;-83
2022/06/13 08:38:14;;;;;;;;;;;16.90;99.00;;;;;;5090644;28;19928;-79
2022/06/13 08:40:45;;;;;;;;;;;17.00;96.60;;;;;;5095447;28;19928;-80
2022/06/13 08:43:26;;;;;;;;;;;17.10;95.50;;;;;;5092346;28;20008;-81
2022/06/13 08:45:58;;;;;;;;;;;17.40;94.70;;;;;;5075351;28;19927;-81
2022/06/13 08:48:49;;;;;;;;;;;17.70;94.10;;;;;;5527229;22;20385;-63
2022/06/13 08:51:23;;;;;;;;;;;17.60;93.40;;;;;;5049580;28;20094;-64
2022/06/13 08:53:51;;;;;;;;;;;17.80;93.60;;;;;;5043138;28;19975;-65
2022/06/13 08:56:20;;;;;;;;;;;18.00;95.70;;;;;;5067438;28;19912;-65
2022/06/13 08:58:53;;;;;;;;;;;17.90;96.20;;;;;;5059603;28;19999;-64
2022/06/13 09:01:22;;;;;;;;;;;18.00;95.70;;;;;;5051993;28;20011;-63
2022/06/13 09:04:16;;;;;;;;;;;18.10;95.20;;;;;;5064297;28;19919;-65
2022/06/13 09:06:48;;;;;;;;;;;18.20;94.40;;;;;;5054715;28;20357;-63
2022/06/13 09:09:18;;;;;;;;;;;18.40;93.20;;;;;;5053715;28;19920;-65
2022/06/13 09:11:49;;;;;;;;;;;18.50;92.50;;;;;;5069659;28;19916;-63
2022/06/13 09:14:33;;;;;;;;;;;18.50;91.30;;;;;;5070774;28;19920;-63
2022/06/13 09:17:22;;;;;;;;;;;18.10;91.90;;;;;;5074941;28;20439;-64
2022/06/13 09:19:47;;;;;;;;;;;18.10;92.50;;;;;;5059825;28;19917;-64
2022/06/13 09:22:13;;;;;;;;;;;18.00;92.80;;;;;;5076505;28;20007;-64
2022/06/13 09:24:45;;;;;;;;;;;18.00;92.60;;;;;;5069052;28;19913;-63
2022/06/13 09:27:17;;;;;;;;;;;18.10;92.20;;;;;;5078496;28;19913;-64
2022/06/13 09:29:55;;;;;;;;;;;18.30;91.40;;;;;;5073926;28;19919;-64
2022/06/13 09:32:22;;;;;;;;;;;18.60;91.40;;;;;;5075649;28;20027;-65
2022/06/13 09:34:50;;;;;;;;;;;18.80;89.70;;;;;;5053487;28;19974;-63
2022/06/13 09:37:19;;;;;;;;;;;18.80;88.40;;;;;;5069068;28;19917;-63
2022/06/13 09:39:44;;;;;;;;;;;19.00;87.30;;;;;;5072398;28;19919;-65
2022/06/13 09:42:29;;;;;;;;;;;18.90;87.00;;;;;;5070376;28;19999;-66
2022/06/13 09:45:04;;;;;;;;;;;18.70;89.60;;;;;;5054944;28;19913;-64
2022/06/13 09:47:39;;;;;;;;;;;18.70;90.40;;;;;;5062339;28;19912;-63
2022/06/13 09:50:43;;;;;;;;;;;18.70;90.90;;;;;;5063781;28;19920;-63
2022/06/13 09:53:17;;;;;;;;;;;18.70;91.40;;;;;;4989838;28;19989;-63
2022/06/13 09:55:49;;;;;;;;;;;18.70;90.90;;;;;;5056390;28;19977;-62
2022/06/13 09:58:34;;;;;;;;;;;18.60;91.00;;;;;;5068813;28;19959;-64
2022/06/13 10:01:05;;;;;;;;;;;18.60;90.60;;;;;;5054857;28;19913;-64
2022/06/13 10:03:49;;;;;;;;;;;18.70;90.50;;;;;;5065932;28;19920;-65
2022/06/13 10:06:14;;;;;;;;;;;18.70;90.20;;;;;;5073580;28;19958;-64
2022/06/13 10:08:59;;;;;;;;;;;18.60;90.10;;;;;;5074946;28;19917;-63
2022/06/13 10:11:30;;;;;;;;;;;18.90;89.70;;;;;;5073785;28;19909;-64
2022/06/13 10:14:20;;;;;;;;;;;19.30;88.00;;;;;;5040026;28;19920;-64
2022/06/13 10:16:54;;;;;;;;;;;19.70;85.30;;;;;;5024453;28;19912;-64
2022/06/13 10:19:43;;;;;;;;;;;20.10;84.50;;;;;;5068474;28;19912;-63
2022/06/13 10:22:09;;;;;;;;;;;20.10;82.30;;;;;;5064927;28;19921;-64
2022/06/13 10:25:10;;;;;;;;;;;19.50;83.70;;;;;;5068332;28;20331;-64
2022/06/13 10:27:36;;;;;;;;;;;19.20;84.50;;;;;;4946627;28;20305;-63
2022/06/13 10:30:12;;;;;;;;;;;19.30;85.40;;;;;;5039743;28;19913;-63
2022/06/13 10:32:38;;;;;;;;;;;19.20;86.30;;;;;;5068958;28;20354;-63
2022/06/13 10:35:03;;;;;;;;;;;19.40;88.30;;;;;;5071464;28;19919;-63
2022/06/13 10:37:29;;;;;;;;;;;19.50;88.80;;;;;;5069378;28;20014;-64
2022/06/13 10:40:00;;;;;;;;;;;19.40;89.30;;;;;;5067314;28;19913;-65
2022/06/13 10:42:29;;;;;;;;;;;19.20;89.50;;;;;;5066144;28;19960;-65
2022/06/13 10:44:54;;;;;;;;;;;18.90;90.70;;;;;;5063641;28;20428;-64
2022/06/13 10:47:23;;;;;;;;;;;19.10;90.30;;;;;;5070033;28;19916;-63
2022/06/13 10:49:53;;;;;;;;;;;19.30;89.20;;;;;;5046815;28;19961;-64
2022/06/13 10:52:20;;;;;;;;;;;19.40;87.80;;;;;;5051287;28;20286;-63
2022/06/13 10:54:48;;;;;;;;;;;19.50;87.50;;;;;;5043290;28;19924;-64
2022/06/13 10:57:17;;;;;;;;;;;19.60;86.00;;;;;;5043241;28;20319;-64
2022/06/13 10:59:43;;;;;;;;;;;19.80;86.60;;;;;;5049383;28;20007;-63
2022/06/13 11:02:18;;;;;;;;;;;20.00;86.60;;;;;;5045484;28;19960;-64
2022/06/13 11:04:44;;;;;;;;;;;20.20;85.30;;;;;;5046344;28;19913;-63
2022/06/13 11:07:14;;;;;;;;;;;19.70;84.90;;;;;;5064828;28;19916;-63
2022/06/13 11:09:45;;;;;;;;;;;19.40;86.60;;;;;;5063495;28;20448;-64
2022/06/13 11:12:26;;;;;;;;;;;19.70;85.40;;;;;;5063680;28;19924;-63
2022/06/13 11:23:11;;;;;;;;;;;20.40;84.10;;;;;;5043727;28;19932;-64
2022/06/13 11:25:37;;;;;;;;;;;20.60;83.90;;;;;;5066570;28;19905;-64
2022/06/13 11:28:13;;;;;;;;;;;20.30;83.50;;;;;;5052725;28;19917;-63
2022/06/13 11:30:51;;;;;;;;;;;20.00;84.50;;;;;;5054531;28;19920;-63
2022/06/13 11:33:40;;;;;;;;;;;20.00;84.40;;;;;;5069155;28;19943;-63
2022/06/13 11:36:11;;;;;;;;;;;20.10;83.80;;;;;;5056336;28;19925;-63
2022/06/13 11:38:49;;;;;;;;;;;20.10;82.50;;;;;;5060396;28;19912;-62
2022/06/13 11:41:28;;;;;;;;;;;20.30;82.00;;;;;;5065299;28;19908;-62
2022/06/13 11:44:01;;;;;;;;;;;20.60;80.20;;;;;;5067528;28;20011;-64
2022/06/13 11:46:27;;;;;;;;;;;20.90;80.50;;;;;;5069247;28;19943;-62
2022/06/13 11:48:53;;;;;;;;;;;20.80;81.20;;;;;;5054264;28;19935;-64
2022/06/13 11:51:27;;;;;;;;;;;20.50;82.30;;;;;;5058249;28;19920;-63
2022/06/13 11:53:55;;;;;;;;;;;19.70;84.80;;;;;;5064723;28;19920;-62
2022/06/13 11:56:26;;;;;;;;;;;19.40;86.20;;;;;;5060100;28;19909;-63
2022/06/13 11:58:54;;;;;;;;;;;19.30;86.00;;;;;;5060964;28;19933;-63
2022/06/13 12:01:23;;;;;;;;;;;19.30;86.20;;;;;;5063153;28;19952;-62
2022/06/13 12:03:58;;;;;;;;;;;19.30;86.70;;;;;;5052922;28;19923;-63
2022/06/13 12:06:31;;;;;;;;;;;19.20;86.60;;;;;;5052003;28;19940;-63
2022/06/13 12:09:31;;;;;;;;;;;19.00;86.40;;;;;;5059919;28;19978;-63
2022/06/13 12:12:00;;;;;;;;;;;18.90;85.20;;;;;;5055728;28;19944;-63
2022/06/13 12:14:30;;;;;;;;;;;19.00;84.10;;;;;;5064085;28;19931;-63
2022/06/13 12:17:00;;;;;;;;;;;19.10;83.70;;;;;;5063862;28;19917;-62
2022/06/13 12:19:33;;;;;;;;;;;19.40;82.80;;;;;;5064738;28;19940;-62
2022/06/13 12:21:58;;;;;;;;;;;19.50;83.10;;;;;;5071241;28;19900;-63
2022/06/13 12:24:29;;;;;;;;;;;19.50;83.30;;;;;;5059950;28;19997;-62
2022/06/13 12:27:05;;;;;;;;;;;19.60;83.50;;;;;;5053069;28;19918;-63
2022/06/13 12:29:37;;;;;;;;;;;19.80;83.30;;;;;;5046545;28;19917;-64
2022/06/13 12:32:13;;;;;;;;;;;20.00;83.40;;;;;;5060975;28;19905;-63
2022/06/13 12:34:54;;;;;;;;;;;19.80;84.50;;;;;;5049656;28;19921;-62
2022/06/13 12:37:19;;;;;;;;;;;19.90;83.90;;;;;;5064869;28;19912;-64
2022/06/13 12:39:48;;;;;;;;;;;20.10;83.50;;;;;;5068964;28;20076;-63
2022/06/13 12:42:13;;;;;;;;;;;19.70;85.00;;;;;;5052382;28;19980;-63
2022/06/13 12:44:42;;;;;;;;;;;19.90;85.20;;;;;;5050511;28;20471;-62
2022/06/13 12:47:14;;;;;;;;;;;19.80;85.40;;;;;;5059510;28;19925;-63
2022/06/13 12:49:50;;;;;;;;;;;19.90;85.60;;;;;;5075311;28;19968;-62
2022/06/13 12:52:15;;;;;;;;;;;19.90;85.70;;;;;;5085880;28;19915;-65
2022/06/13 12:54:50;;;;;;;;;;;20.10;86.10;;;;;;5089082;28;19924;-62
2022/06/13 12:57:27;;;;;;;;;;;20.10;85.10;;;;;;5094546;28;19923;-63
2022/06/13 12:59:59;;;;;;;;;;;20.10;86.50;;;;;;5067506;28;20254;-63
2022/06/13 13:02:31;;;;;;;;;;;20.00;86.70;;;;;;5063798;28;20454;-63
2022/06/13 13:05:17;;;;;;;;;;;19.90;86.80;;;;;;5071603;28;20007;-63
2022/06/13 13:07:52;;;;;;;;;;;19.60;87.30;;;;;;5078999;28;19913;-63
2022/06/13 13:10:17;;;;;;;;;;;19.70;87.10;;;;;;5077378;28;19912;-62
2022/06/13 13:12:43;;;;;;;;;;;19.80;87.60;;;;;;5075779;28;20360;-61
2022/06/13 13:15:11;;;;;;;;;;;20.10;87.10;;;;;;5064536;28;19967;-62
2022/06/13 13:17:56;;;;;;;;;;;20.30;86.60;;;;;;5070332;28;19938;-64
2022/06/13 13:20:27;;;;;;;;;;;20.30;85.90;;;;;;5068110;28;20103;-63
2022/06/13 13:23:01;;;;;;;;;;;20.20;85.50;;;;;;5049280;28;19929;-63
2022/06/13 13:25:48;;;;;;;;;;;19.90;86.80;;;;;;5068433;28;19912;-63
2022/06/13 13:28:14;;;;;;;;;;;20.10;87.80;;;;;;5067654;28;19912;-63
2022/06/13 13:30:47;;;;;;;;;;;20.10;87.60;;;;;;5068557;28;20093;-63
2022/06/13 13:33:22;;;;;;;;;;;19.80;89.00;;;;;;5082461;28;19927;-62
2022/06/13 13:35:51;;;;;;;;;;;19.50;90.40;;;;;;5063461;28;20018;-63
2022/06/13 13:38:23;;;;;;;;;;;19.50;90.40;;;;;;5067457;28;20382;-63
2022/06/13 13:41:04;;;;;;;;;;;19.50;89.60;;;;;;5078912;28;19920;-64
2022/06/13 13:43:36;;;;;;;;;;;19.50;90.20;;;;;;5070468;28;19919;-62
2022/06/13 13:46:08;;;;;;;;;;;19.50;88.80;;;;;;5065846;28;19913;-63
2022/06/13 13:48:40;;;;;;;;;;;19.80;88.00;;;;;;5070329;28;19986;-64
2022/06/13 13:51:08;;;;;;;;;;;20.00;87.30;;;;;;5070870;28;19913;-63
2022/06/13 13:53:39;;;;;;;;;;;20.10;86.10;;;;;;5062299;28;19973;-63
2022/06/13 13:56:04;;;;;;;;;;;20.40;85.80;;;;;;5074167;28;19960;-63
2022/06/13 13:58:34;;;;;;;;;;;20.30;84.70;;;;;;5079726;28;19913;-62
2022/06/13 14:00:59;;;;;;;;;;;20.50;84.20;;;;;;5078518;28;19912;-62
2022/06/13 14:03:32;;;;;;;;;;;20.70;83.60;;;;;;5069268;28;19923;-63
2022/06/13 14:06:01;;;;;;;;;;;20.80;82.90;;;;;;5076112;28;20018;-63
2022/06/13 14:08:30;;;;;;;;;;;20.80;82.40;;;;;;5080438;28;19920;-63
2022/06/13 14:10:57;;;;;;;;;;;20.70;83.60;;;;;;5078919;28;19966;-62
2022/06/13 14:13:28;;;;;;;;;;;20.80;82.90;;;;;;5063879;28;20493;-63
2022/06/13 14:15:55;;;;;;;;;;;20.90;82.10;;;;;;5076145;28;19940;-63
2022/06/13 14:18:21;;;;;;;;;;;21.10;81.70;;;;;;5080735;28;19920;-64
2022/06/13 14:20:47;;;;;;;;;;;21.30;81.30;;;;;;5071681;28;19909;-64
2022/06/13 14:23:17;;;;;;;;;;;21.40;80.50;;;;;;5082804;28;19896;-63
2022/06/13 14:25:45;;;;;;;;;;;21.20;80.70;;;;;;5072275;28;19992;-63
2022/06/13 14:28:18;;;;;;;;;;;21.20;81.60;;;;;;5075830;28;20427;-63
2022/06/13 14:31:05;;;;;;;;;;;21.20;82.80;;;;;;5074271;28;19913;-63
2022/06/13 14:36:52;;;;;;;;;;;20.70;83.00;;;;;;5088383;28;19928;-62
2022/06/13 14:39:26;;;;;;;;;;;20.70;84.50;;;;;;5094584;28;19928;-63
2022/06/13 14:41:52;;;;;;;;;;;20.80;84.50;;;;;;5081605;28;19968;-62
2022/06/13 14:44:25;;;;;;;;;;;21.30;82.60;;;;;;5074153;28;19934;-63
2022/06/13 14:47:09;;;;;;;;;;;22.10;81.50;;;;;;5069324;28;19925;-64
2022/06/13 14:49:47;;;;;;;;;;;23.40;78.60;;;;;;5078070;28;19983;-64
2022/06/13 14:52:16;;;;;;;;;;;24.80;74.40;;;;;;5065161;28;19912;-63
2022/06/13 14:54:51;;;;;;;;;;;25.50;72.60;;;;;;5069827;28;19948;-64
2022/06/13 14:57:28;;;;;;;;;;;25.90;71.10;;;;;;5073363;28;19961;-62
2022/06/13 15:00:06;;;;;;;;;;;26.30;70.30;;;;;;5071471;28;19912;-63